< < Back
Terminal Aerodrome Forecast


Current Version              Previous Versions:   1  2  3  4  5  6  7  8  9  

Terminal Aerodrome Forecast

985
FTUS44 KBMX 292339
TAFTCL
TAF
KTCL 292339Z 3000/3024 23005KT P6SM VCSH SCT050
     FM300200 VRB03KT P6SM BKN250=

Latest METAR

085
SAUS70 KWBC 302000 RRI
MTRTCL
METAR KTCL 301953Z 10SM SCT048 32/23 A3002 RMK AO2 LTG DSNT NW-NE PRESRR
SLP161 T03220228


USA.gov is the U.S. government's official web portal to all federal, state and local government web resources and services.